sensor_id;sensor_type;location;lat;lon;timestamp;temperature;humidity
2459;DHT22;1241;50.920;6.936;2022-07-23T00:01:22;19.30;99.90
2459;DHT22;1241;50.920;6.936;2022-07-23T00:03:48;19.30;99.90
2459;DHT22;1241;50.920;6.936;2022-07-23T00:06:14;19.10;99.90
2459;DHT22;1241;50.920;6.936;2022-07-23T00:08:40;19.00;99.90
2459;DHT22;1241;50.920;6.936;2022-07-23T00:11:06;19.00;99.90
2459;DHT22;1241;50.920;6.936;2022-07-23T00:13:32;19.10;99.90
2459;DHT22;1241;50.920;6.936;2022-07-23T00:15:58;19.20;99.90
2459;DHT22;1241;50.920;6.936;2022-07-23T00:18:23;19.10;99.90
2459;DHT22;1241;50.920;6.936;2022-07-23T00:20:49;19.10;99.90
2459;DHT22;1241;50.920;6.936;2022-07-23T00:23:16;19.10;99.90
2459;DHT22;1241;50.920;6.936;2022-07-23T00:25:42;19.10;99.90
2459;DHT22;1241;50.920;6.936;2022-07-23T00:28:07;18.80;99.90
2459;DHT22;1241;50.920;6.936;2022-07-23T00:30:33;18.70;99.90
2459;DHT22;1241;50.920;6.936;2022-07-23T00:33:02;18.70;99.90
2459;DHT22;1241;50.920;6.936;2022-07-23T00:35:31;18.50;99.90
2459;DHT22;1241;50.920;6.936;2022-07-23T00:37:57;18.50;99.90
2459;DHT22;1241;50.920;6.936;2022-07-23T00:40:23;18.40;99.90
2459;DHT22;1241;50.920;6.936;2022-07-23T00:42:49;18.30;99.90
2459;DHT22;1241;50.920;6.936;2022-07-23T00:45:15;18.30;99.90
2459;DHT22;1241;50.920;6.936;2022-07-23T00:47:41;18.10;99.90
2459;DHT22;1241;50.920;6.936;2022-07-23T00:50:08;18.00;99.90
2459;DHT22;1241;50.920;6.936;2022-07-23T00:52:35;17.90;99.90
2459;DHT22;1241;50.920;6.936;2022-07-23T00:55:01;18.00;99.90
2459;DHT22;1241;50.920;6.936;2022-07-23T00:57:27;18.00;99.90
2459;DHT22;1241;50.920;6.936;2022-07-23T00:59:53;18.00;99.90
2459;DHT22;1241;50.920;6.936;2022-07-23T01:02:18;18.10;99.90
2459;DHT22;1241;50.920;6.936;2022-07-23T01:04:45;18.10;99.90
2459;DHT22;1241;50.920;6.936;2022-07-23T01:07:11;18.20;99.90
2459;DHT22;1241;50.920;6.936;2022-07-23T01:09:37;18.30;99.90
2459;DHT22;1241;50.920;6.936;2022-07-23T01:12:04;18.30;99.90
2459;DHT22;1241;50.920;6.936;2022-07-23T01:14:30;18.40;99.90
2459;DHT22;1241;50.920;6.936;2022-07-23T01:16:57;18.30;99.90
2459;DHT22;1241;50.920;6.936;2022-07-23T01:19:23;18.10;99.90
2459;DHT22;1241;50.920;6.936;2022-07-23T01:21:50;17.80;99.90
2459;DHT22;1241;50.920;6.936;2022-07-23T01:24:18;17.60;99.90
2459;DHT22;1241;50.920;6.936;2022-07-23T01:26:57;17.50;99.90
2459;DHT22;1241;50.920;6.936;2022-07-23T01:29:23;17.40;99.90
2459;DHT22;1241;50.920;6.936;2022-07-23T01:31:50;17.40;99.90
2459;DHT22;1241;50.920;6.936;2022-07-23T01:34:16;17.40;99.90
2459;DHT22;1241;50.920;6.936;2022-07-23T01:36:42;17.40;99.90
2459;DHT22;1241;50.920;6.936;2022-07-23T01:39:09;17.40;99.90
2459;DHT22;1241;50.920;6.936;2022-07-23T01:41:36;17.40;99.90
2459;DHT22;1241;50.920;6.936;2022-07-23T01:44:02;17.50;99.90
2459;DHT22;1241;50.920;6.936;2022-07-23T01:46:29;17.50;99.90
2459;DHT22;1241;50.920;6.936;2022-07-23T01:48:55;17.50;99.90
2459;DHT22;1241;50.920;6.936;2022-07-23T01:51:39;17.50;99.90
2459;DHT22;1241;50.920;6.936;2022-07-23T01:54:26;17.40;99.90
2459;DHT22;1241;50.920;6.936;2022-07-23T01:56:52;17.40;99.90
2459;DHT22;1241;50.920;6.936;2022-07-23T01:59:18;17.40;99.90
2459;DHT22;1241;50.920;6.936;2022-07-23T02:01:44;17.50;99.90
2459;DHT22;1241;50.920;6.936;2022-07-23T02:04:10;17.50;99.90
2459;DHT22;1241;50.920;6.936;2022-07-23T02:06:36;17.50;99.90
2459;DHT22;1241;50.920;6.936;2022-07-23T02:09:03;17.50;99.90
2459;DHT22;1241;50.920;6.936;2022-07-23T02:11:28;17.50;99.90
2459;DHT22;1241;50.920;6.936;2022-07-23T02:13:54;17.40;99.90
2459;DHT22;1241;50.920;6.936;2022-07-23T02:16:21;17.50;99.90
2459;DHT22;1241;50.920;6.936;2022-07-23T02:18:46;17.50;99.90
2459;DHT22;1241;50.920;6.936;2022-07-23T02:21:12;17.50;99.90
2459;DHT22;1241;50.920;6.936;2022-07-23T02:23:38;17.40;99.90
2459;DHT22;1241;50.920;6.936;2022-07-23T02:26:04;17.50;99.90
2459;DHT22;1241;50.920;6.936;2022-07-23T02:28:30;17.40;99.90
2459;DHT22;1241;50.920;6.936;2022-07-23T02:30:56;17.40;99.90
2459;DHT22;1241;50.920;6.936;2022-07-23T02:33:22;17.40;99.90
2459;DHT22;1241;50.920;6.936;2022-07-23T02:35:48;17.40;99.90
2459;DHT22;1241;50.920;6.936;2022-07-23T02:38:17;17.40;99.90
2459;DHT22;1241;50.920;6.936;2022-07-23T02:40:44;17.40;99.90
2459;DHT22;1241;50.920;6.936;2022-07-23T02:43:10;17.40;99.90
2459;DHT22;1241;50.920;6.936;2022-07-23T02:45:38;17.40;99.90
2459;DHT22;1241;50.920;6.936;2022-07-23T02:48:04;17.30;99.90
2459;DHT22;1241;50.920;6.936;2022-07-23T02:50:30;17.20;99.90
2459;DHT22;1241;50.920;6.936;2022-07-23T02:52:57;17.20;99.90
2459;DHT22;1241;50.920;6.936;2022-07-23T02:55:24;17.10;99.90
2459;DHT22;1241;50.920;6.936;2022-07-23T02:57:51;17.10;99.90
2459;DHT22;1241;50.920;6.936;2022-07-23T03:00:17;17.10;99.90
2459;DHT22;1241;50.920;6.936;2022-07-23T03:02:42;17.00;99.90
2459;DHT22;1241;50.920;6.936;2022-07-23T03:05:08;17.00;99.90
2459;DHT22;1241;50.920;6.936;2022-07-23T03:07:34;16.90;99.90
2459;DHT22;1241;50.920;6.936;2022-07-23T03:10:00;16.80;99.90
2459;DHT22;1241;50.920;6.936;2022-07-23T03:12:26;16.90;99.90
2459;DHT22;1241;50.920;6.936;2022-07-23T03:14:52;16.80;99.90
2459;DHT22;1241;50.920;6.936;2022-07-23T03:17:18;16.80;99.90
2459;DHT22;1241;50.920;6.936;2022-07-23T03:19:43;16.80;99.90
2459;DHT22;1241;50.920;6.936;2022-07-23T03:22:09;16.80;99.90
2459;DHT22;1241;50.920;6.936;2022-07-23T03:24:35;16.80;99.90
2459;DHT22;1241;50.920;6.936;2022-07-23T03:27:26;16.80;99.90
2459;DHT22;1241;50.920;6.936;2022-07-23T03:29:53;16.80;99.90
2459;DHT22;1241;50.920;6.936;2022-07-23T03:32:20;16.70;99.90
2459;DHT22;1241;50.920;6.936;2022-07-23T03:34:46;16.70;99.90
2459;DHT22;1241;50.920;6.936;2022-07-23T03:37:12;16.70;99.90
2459;DHT22;1241;50.920;6.936;2022-07-23T03:39:39;16.70;99.90
2459;DHT22;1241;50.920;6.936;2022-07-23T03:42:05;16.70;99.90
2459;DHT22;1241;50.920;6.936;2022-07-23T03:44:31;16.70;99.90
2459;DHT22;1241;50.920;6.936;2022-07-23T03:46:57;16.60;99.90
2459;DHT22;1241;50.920;6.936;2022-07-23T03:49:22;16.60;99.90
2459;DHT22;1241;50.920;6.936;2022-07-23T03:51:48;16.60;99.90
2459;DHT22;1241;50.920;6.936;2022-07-23T03:54:14;16.60;99.90
2459;DHT22;1241;50.920;6.936;2022-07-23T03:56:40;16.60;99.90
2459;DHT22;1241;50.920;6.936;2022-07-23T03:59:06;16.60;99.90
2459;DHT22;1241;50.920;6.936;2022-07-23T04:01:32;16.60;99.90
2459;DHT22;1241;50.920;6.936;2022-07-23T04:03:58;16.60;99.90
2459;DHT22;1241;50.920;6.936;2022-07-23T04:06:24;16.50;99.90
2459;DHT22;1241;50.920;6.936;2022-07-23T04:08:52;16.50;99.90
2459;DHT22;1241;50.920;6.936;2022-07-23T04:11:17;16.60;99.90
2459;DHT22;1241;50.920;6.936;2022-07-23T04:13:43;16.60;99.90
2459;DHT22;1241;50.920;6.936;2022-07-23T04:16:10;16.60;99.90
2459;DHT22;1241;50.920;6.936;2022-07-23T04:18:36;16.60;99.90
2459;DHT22;1241;50.920;6.936;2022-07-23T04:21:10;16.70;99.90
2459;DHT22;1241;50.920;6.936;2022-07-23T04:23:37;16.70;99.90
2459;DHT22;1241;50.920;6.936;2022-07-23T04:26:04;16.80;99.90
2459;DHT22;1241;50.920;6.936;2022-07-23T04:28:31;16.90;99.90
2459;DHT22;1241;50.920;6.936;2022-07-23T04:30:57;17.00;99.90
2459;DHT22;1241;50.920;6.936;2022-07-23T04:33:23;17.20;99.90
2459;DHT22;1241;50.920;6.936;2022-07-23T04:35:52;17.50;99.90
2459;DHT22;1241;50.920;6.936;2022-07-23T04:38:19;17.80;99.90
2459;DHT22;1241;50.920;6.936;2022-07-23T04:40:46;18.20;99.90
2459;DHT22;1241;50.920;6.936;2022-07-23T04:43:12;18.50;99.90
2459;DHT22;1241;50.920;6.936;2022-07-23T04:45:47;18.90;99.90
2459;DHT22;1241;50.920;6.936;2022-07-23T04:48:13;19.30;99.90
2459;DHT22;1241;50.920;6.936;2022-07-23T04:50:40;19.70;99.90
2459;DHT22;1241;50.920;6.936;2022-07-23T04:53:14;20.10;99.90
2459;DHT22;1241;50.920;6.936;2022-07-23T04:55:40;20.50;99.90
2459;DHT22;1241;50.920;6.936;2022-07-23T04:58:06;20.70;99.90
2459;DHT22;1241;50.920;6.936;2022-07-23T05:00:32;21.10;99.90
2459;DHT22;1241;50.920;6.936;2022-07-23T05:02:58;21.20;99.90
2459;DHT22;1241;50.920;6.936;2022-07-23T05:05:24;21.40;99.90
2459;DHT22;1241;50.920;6.936;2022-07-23T05:07:52;21.50;99.90
2459;DHT22;1241;50.920;6.936;2022-07-23T05:10:18;21.60;99.90
2459;DHT22;1241;50.920;6.936;2022-07-23T05:12:44;21.70;99.90
2459;DHT22;1241;50.920;6.936;2022-07-23T05:15:10;21.60;99.90
2459;DHT22;1241;50.920;6.936;2022-07-23T05:17:36;21.50;99.90
2459;DHT22;1241;50.920;6.936;2022-07-23T05:20:07;21.60;99.90
2459;DHT22;1241;50.920;6.936;2022-07-23T05:22:33;21.80;99.90
2459;DHT22;1241;50.920;6.936;2022-07-23T05:24:59;22.20;99.90
2459;DHT22;1241;50.920;6.936;2022-07-23T05:27:25;22.30;99.90
2459;DHT22;1241;50.920;6.936;2022-07-23T05:29:51;22.20;99.90
2459;DHT22;1241;50.920;6.936;2022-07-23T05:32:16;22.00;99.90
2459;DHT22;1241;50.920;6.936;2022-07-23T05:34:50;22.00;99.90
2459;DHT22;1241;50.920;6.936;2022-07-23T05:37:17;22.00;99.90
2459;DHT22;1241;50.920;6.936;2022-07-23T05:39:42;21.90;99.90
2459;DHT22;1241;50.920;6.936;2022-07-23T05:42:08;21.70;99.90
2459;DHT22;1241;50.920;6.936;2022-07-23T05:44:34;21.80;99.90
2459;DHT22;1241;50.920;6.936;2022-07-23T05:47:01;22.00;99.90
2459;DHT22;1241;50.920;6.936;2022-07-23T05:49:28;22.10;99.90
2459;DHT22;1241;50.920;6.936;2022-07-23T05:51:53;22.10;99.90
2459;DHT22;1241;50.920;6.936;2022-07-23T05:54:29;21.90;99.90
2459;DHT22;1241;50.920;6.936;2022-07-23T05:56:55;21.60;99.90
2459;DHT22;1241;50.920;6.936;2022-07-23T05:59:21;21.40;99.90
2459;DHT22;1241;50.920;6.936;2022-07-23T06:01:47;21.30;99.90
2459;DHT22;1241;50.920;6.936;2022-07-23T06:04:12;21.30;99.90
2459;DHT22;1241;50.920;6.936;2022-07-23T06:06:45;21.40;99.90
2459;DHT22;1241;50.920;6.936;2022-07-23T06:09:11;21.90;99.90
2459;DHT22;1241;50.920;6.936;2022-07-23T06:11:40;22.60;99.90
2459;DHT22;1241;50.920;6.936;2022-07-23T06:14:06;23.00;99.90
2459;DHT22;1241;50.920;6.936;2022-07-23T06:16:45;23.20;99.90
2459;DHT22;1241;50.920;6.936;2022-07-23T06:19:11;23.10;99.90
2459;DHT22;1241;50.920;6.936;2022-07-23T06:21:37;23.10;99.90
2459;DHT22;1241;50.920;6.936;2022-07-23T06:24:03;23.10;99.90
2459;DHT22;1241;50.920;6.936;2022-07-23T06:26:29;23.00;99.90
2459;DHT22;1241;50.920;6.936;2022-07-23T06:28:54;23.10;99.90
2459;DHT22;1241;50.920;6.936;2022-07-23T06:31:20;23.00;99.90
2459;DHT22;1241;50.920;6.936;2022-07-23T06:33:46;23.10;99.90
2459;DHT22;1241;50.920;6.936;2022-07-23T06:36:13;23.60;99.90
2459;DHT22;1241;50.920;6.936;2022-07-23T06:38:40;24.50;99.90
2459;DHT22;1241;50.920;6.936;2022-07-23T06:41:05;24.60;99.90
2459;DHT22;1241;50.920;6.936;2022-07-23T06:43:31;25.30;99.90
2459;DHT22;1241;50.920;6.936;2022-07-23T06:45:58;25.50;99.90
2459;DHT22;1241;50.920;6.936;2022-07-23T06:48:24;26.00;99.90
2459;DHT22;1241;50.920;6.936;2022-07-23T06:50:50;26.70;99.90
2459;DHT22;1241;50.920;6.936;2022-07-23T06:53:22;27.30;99.90
2459;DHT22;1241;50.920;6.936;2022-07-23T06:55:48;28.00;99.90
2459;DHT22;1241;50.920;6.936;2022-07-23T06:58:13;28.00;99.90
2459;DHT22;1241;50.920;6.936;2022-07-23T07:00:40;28.20;99.90
2459;DHT22;1241;50.920;6.936;2022-07-23T07:03:06;27.70;99.90
2459;DHT22;1241;50.920;6.936;2022-07-23T07:05:31;27.60;99.90
2459;DHT22;1241;50.920;6.936;2022-07-23T07:07:57;27.60;99.90
2459;DHT22;1241;50.920;6.936;2022-07-23T07:10:23;28.10;99.90
2459;DHT22;1241;50.920;6.936;2022-07-23T07:12:49;29.00;99.90
2459;DHT22;1241;50.920;6.936;2022-07-23T07:15:14;29.50;99.90
2459;DHT22;1241;50.920;6.936;2022-07-23T07:17:40;29.90;99.90
2459;DHT22;1241;50.920;6.936;2022-07-23T07:20:08;30.20;99.90
2459;DHT22;1241;50.920;6.936;2022-07-23T07:22:34;29.80;99.90
2459;DHT22;1241;50.920;6.936;2022-07-23T07:24:59;29.60;99.90
2459;DHT22;1241;50.920;6.936;2022-07-23T07:27:25;29.80;99.90
2459;DHT22;1241;50.920;6.936;2022-07-23T07:29:51;29.40;99.90
2459;DHT22;1241;50.920;6.936;2022-07-23T07:32:16;28.60;99.90
2459;DHT22;1241;50.920;6.936;2022-07-23T07:34:42;28.40;99.90
2459;DHT22;1241;50.920;6.936;2022-07-23T07:37:08;29.00;99.90
2459;DHT22;1241;50.920;6.936;2022-07-23T07:39:33;29.90;99.90
2459;DHT22;1241;50.920;6.936;2022-07-23T07:41:59;30.50;99.90
2459;DHT22;1241;50.920;6.936;2022-07-23T07:44:25;30.80;99.90
2459;DHT22;1241;50.920;6.936;2022-07-23T07:46:51;30.70;99.90
2459;DHT22;1241;50.920;6.936;2022-07-23T07:49:17;30.50;99.90
2459;DHT22;1241;50.920;6.936;2022-07-23T07:51:45;29.10;99.90
2459;DHT22;1241;50.920;6.936;2022-07-23T07:54:12;28.80;99.90
2459;DHT22;1241;50.920;6.936;2022-07-23T07:56:37;29.20;99.90
2459;DHT22;1241;50.920;6.936;2022-07-23T07:59:03;28.80;99.90
2459;DHT22;1241;50.920;6.936;2022-07-23T08:01:29;28.20;99.90
2459;DHT22;1241;50.920;6.936;2022-07-23T08:03:55;27.50;99.90
2459;DHT22;1241;50.920;6.936;2022-07-23T08:06:20;27.70;99.90
2459;DHT22;1241;50.920;6.936;2022-07-23T08:08:46;27.30;99.90
2459;DHT22;1241;50.920;6.936;2022-07-23T08:11:12;26.50;99.90
2459;DHT22;1241;50.920;6.936;2022-07-23T08:13:37;25.70;99.90
2459;DHT22;1241;50.920;6.936;2022-07-23T08:16:03;25.60;99.90
2459;DHT22;1241;50.920;6.936;2022-07-23T08:18:29;25.80;99.90
2459;DHT22;1241;50.920;6.936;2022-07-23T08:20:55;26.10;99.90
2459;DHT22;1241;50.920;6.936;2022-07-23T08:23:21;26.40;99.90
2459;DHT22;1241;50.920;6.936;2022-07-23T08:25:47;26.40;99.90
2459;DHT22;1241;50.920;6.936;2022-07-23T08:28:14;26.30;99.90
2459;DHT22;1241;50.920;6.936;2022-07-23T08:30:41;25.90;99.90
2459;DHT22;1241;50.920;6.936;2022-07-23T08:33:09;25.70;99.90
2459;DHT22;1241;50.920;6.936;2022-07-23T08:35:41;25.20;99.90
2459;DHT22;1241;50.920;6.936;2022-07-23T08:38:08;24.90;99.90
2459;DHT22;1241;50.920;6.936;2022-07-23T08:40:38;24.70;99.90
2459;DHT22;1241;50.920;6.936;2022-07-23T08:43:05;24.50;99.90
2459;DHT22;1241;50.920;6.936;2022-07-23T08:45:39;24.30;99.90
2459;DHT22;1241;50.920;6.936;2022-07-23T08:48:15;24.30;99.90
2459;DHT22;1241;50.920;6.936;2022-07-23T08:50:43;24.50;99.90
2459;DHT22;1241;50.920;6.936;2022-07-23T08:53:10;24.60;99.90
2459;DHT22;1241;50.920;6.936;2022-07-23T08:55:36;24.60;99.90
2459;DHT22;1241;50.920;6.936;2022-07-23T08:58:02;24.40;99.90
2459;DHT22;1241;50.920;6.936;2022-07-23T09:00:28;24.50;99.90
2459;DHT22;1241;50.920;6.936;2022-07-23T09:02:54;24.50;99.90
2459;DHT22;1241;50.920;6.936;2022-07-23T09:05:20;24.60;99.90
2459;DHT22;1241;50.920;6.936;2022-07-23T09:08:06;24.60;99.90
2459;DHT22;1241;50.920;6.936;2022-07-23T09:10:58;24.60;99.90
2459;DHT22;1241;50.920;6.936;2022-07-23T09:13:47;24.50;99.90
2459;DHT22;1241;50.920;6.936;2022-07-23T09:16:28;24.40;99.90
2459;DHT22;1241;50.920;6.936;2022-07-23T09:24:02;23.90;99.90
2459;DHT22;1241;50.920;6.936;2022-07-23T09:26:41;24.10;99.90
2459;DHT22;1241;50.920;6.936;2022-07-23T09:29:13;24.30;99.90
2459;DHT22;1241;50.920;6.936;2022-07-23T09:34:21;24.80;99.90
2459;DHT22;1241;50.920;6.936;2022-07-23T09:36:48;24.90;99.90
2459;DHT22;1241;50.920;6.936;2022-07-23T09:39:16;24.80;99.90
2459;DHT22;1241;50.920;6.936;2022-07-23T09:41:47;24.90;99.90
2459;DHT22;1241;50.920;6.936;2022-07-23T09:44:18;24.90;99.90
2459;DHT22;1241;50.920;6.936;2022-07-23T09:46:46;25.00;99.90
2459;DHT22;1241;50.920;6.936;2022-07-23T09:49:18;25.20;99.90
2459;DHT22;1241;50.920;6.936;2022-07-23T09:51:55;25.20;99.90
2459;DHT22;1241;50.920;6.936;2022-07-23T09:54:31;25.10;99.90
2459;DHT22;1241;50.920;6.936;2022-07-23T09:57:02;24.80;99.90
2459;DHT22;1241;50.920;6.936;2022-07-23T09:59:33;24.80;99.90
2459;DHT22;1241;50.920;6.936;2022-07-23T10:02:00;24.70;99.90
2459;DHT22;1241;50.920;6.936;2022-07-23T10:04:28;24.60;99.90
2459;DHT22;1241;50.920;6.936;2022-07-23T10:07:13;24.60;99.90
2459;DHT22;1241;50.920;6.936;2022-07-23T10:09:58;24.50;99.90
2459;DHT22;1241;50.920;6.936;2022-07-23T10:12:27;24.30;99.90
2459;DHT22;1241;50.920;6.936;2022-07-23T10:14:59;24.30;99.90
2459;DHT22;1241;50.920;6.936;2022-07-23T10:17:27;24.30;99.90
2459;DHT22;1241;50.920;6.936;2022-07-23T10:19:53;24.40;99.90
2459;DHT22;1241;50.920;6.936;2022-07-23T10:22:35;24.30;99.90
2459;DHT22;1241;50.920;6.936;2022-07-23T10:25:26;24.40;99.90
2459;DHT22;1241;50.920;6.936;2022-07-23T10:33:38;24.40;99.90
2459;DHT22;1241;50.920;6.936;2022-07-23T10:36:20;24.50;99.90
2459;DHT22;1241;50.920;6.936;2022-07-23T10:41:13;24.60;99.90
2459;DHT22;1241;50.920;6.936;2022-07-23T10:43:38;24.80;99.90
2459;DHT22;1241;50.920;6.936;2022-07-23T10:46:30;25.00;99.90
2459;DHT22;1241;50.920;6.936;2022-07-23T10:49:28;25.20;99.90
2459;DHT22;1241;50.920;6.936;2022-07-23T10:52:18;25.30;99.90
2459;DHT22;1241;50.920;6.936;2022-07-23T10:54:56;25.30;99.90
2459;DHT22;1241;50.920;6.936;2022-07-23T10:57:49;25.20;99.90
2459;DHT22;1241;50.920;6.936;2022-07-23T11:00:20;25.20;99.90
2459;DHT22;1241;50.920;6.936;2022-07-23T11:02:48;25.10;99.90
2459;DHT22;1241;50.920;6.936;2022-07-23T11:05:19;25.10;99.90
2459;DHT22;1241;50.920;6.936;2022-07-23T11:10:37;25.10;99.90
2459;DHT22;1241;50.920;6.936;2022-07-23T11:24:05;25.10;99.90
2459;DHT22;1241;50.920;6.936;2022-07-23T11:32:02;25.10;99.90
2459;DHT22;1241;50.920;6.936;2022-07-23T11:36:56;25.20;99.90
2459;DHT22;1241;50.920;6.936;2022-07-23T11:39:24;25.30;99.90
2459;DHT22;1241;50.920;6.936;2022-07-23T11:41:51;25.40;99.90
2459;DHT22;1241;50.920;6.936;2022-07-23T11:44:31;25.50;99.90
2459;DHT22;1241;50.920;6.936;2022-07-23T11:46:58;25.60;99.90
2459;DHT22;1241;50.920;6.936;2022-07-23T11:49:25;25.80;99.90
2459;DHT22;1241;50.920;6.936;2022-07-23T11:52:13;25.90;99.90
2459;DHT22;1241;50.920;6.936;2022-07-23T11:54:57;25.80;99.90
2459;DHT22;1241;50.920;6.936;2022-07-23T11:57:31;25.60;99.90
2459;DHT22;1241;50.920;6.936;2022-07-23T12:00:20;25.50;99.90
2459;DHT22;1241;50.920;6.936;2022-07-23T12:02:50;25.40;99.90
2459;DHT22;1241;50.920;6.936;2022-07-23T12:07:47;24.90;99.90
2459;DHT22;1241;50.920;6.936;2022-07-23T12:10:25;24.90;99.90
2459;DHT22;1241;50.920;6.936;2022-07-23T12:15:20;25.30;99.90
2459;DHT22;1241;50.920;6.936;2022-07-23T12:17:48;25.60;99.90
2459;DHT22;1241;50.920;6.936;2022-07-23T12:20:18;25.80;99.90
2459;DHT22;1241;50.920;6.936;2022-07-23T12:22:46;25.90;99.90
2459;DHT22;1241;50.920;6.936;2022-07-23T12:25:20;26.00;99.90
2459;DHT22;1241;50.920;6.936;2022-07-23T12:27:59;26.00;99.90
2459;DHT22;1241;50.920;6.936;2022-07-23T12:30:30;25.90;99.90
2459;DHT22;1241;50.920;6.936;2022-07-23T12:32:57;26.10;99.90
2459;DHT22;1241;50.920;6.936;2022-07-23T12:35:30;26.00;99.90
2459;DHT22;1241;50.920;6.936;2022-07-23T12:38:01;26.00;99.90
2459;DHT22;1241;50.920;6.936;2022-07-23T12:40:29;26.00;99.90
2459;DHT22;1241;50.920;6.936;2022-07-23T12:42:56;25.90;99.90
2459;DHT22;1241;50.920;6.936;2022-07-23T12:45:23;25.90;99.90
2459;DHT22;1241;50.920;6.936;2022-07-23T12:47:57;26.00;99.90
2459;DHT22;1241;50.920;6.936;2022-07-23T12:53:10;26.30;99.90
2459;DHT22;1241;50.920;6.936;2022-07-23T12:55:37;26.50;99.90
2459;DHT22;1241;50.920;6.936;2022-07-23T12:58:17;26.60;99.90
2459;DHT22;1241;50.920;6.936;2022-07-23T13:01:02;26.70;99.90
2459;DHT22;1241;50.920;6.936;2022-07-23T13:03:32;26.50;99.90
2459;DHT22;1241;50.920;6.936;2022-07-23T13:05:59;26.50;99.90
2459;DHT22;1241;50.920;6.936;2022-07-23T13:08:27;26.50;99.90
2459;DHT22;1241;50.920;6.936;2022-07-23T13:10:54;26.60;99.90
2459;DHT22;1241;50.920;6.936;2022-07-23T13:13:24;26.70;99.90
2459;DHT22;1241;50.920;6.936;2022-07-23T13:15:50;26.80;99.90
2459;DHT22;1241;50.920;6.936;2022-07-23T13:18:17;26.80;99.90
2459;DHT22;1241;50.920;6.936;2022-07-23T13:20:44;26.80;99.90
2459;DHT22;1241;50.920;6.936;2022-07-23T13:23:10;26.70;99.90
2459;DHT22;1241;50.920;6.936;2022-07-23T13:25:35;26.70;99.90
2459;DHT22;1241;50.920;6.936;2022-07-23T13:28:01;26.80;99.90
2459;DHT22;1241;50.920;6.936;2022-07-23T13:30:27;26.90;99.90
2459;DHT22;1241;50.920;6.936;2022-07-23T13:32:53;26.80;99.90
2459;DHT22;1241;50.920;6.936;2022-07-23T13:35:19;26.70;99.90
2459;DHT22;1241;50.920;6.936;2022-07-23T13:37:45;26.90;99.90
2459;DHT22;1241;50.920;6.936;2022-07-23T13:40:10;26.90;99.90
2459;DHT22;1241;50.920;6.936;2022-07-23T13:42:37;27.10;99.90
2459;DHT22;1241;50.920;6.936;2022-07-23T13:45:04;27.20;99.90
2459;DHT22;1241;50.920;6.936;2022-07-23T13:47:30;27.30;99.90
2459;DHT22;1241;50.920;6.936;2022-07-23T13:49:56;27.30;99.90
2459;DHT22;1241;50.920;6.936;2022-07-23T13:52:22;27.20;99.90
2459;DHT22;1241;50.920;6.936;2022-07-23T13:54:48;27.20;99.90
2459;DHT22;1241;50.920;6.936;2022-07-23T13:57:13;27.30;99.90
2459;DHT22;1241;50.920;6.936;2022-07-23T13:59:39;27.50;99.90
2459;DHT22;1241;50.920;6.936;2022-07-23T14:02:05;27.40;99.90
2459;DHT22;1241;50.920;6.936;2022-07-23T14:04:31;27.30;99.90
2459;DHT22;1241;50.920;6.936;2022-07-23T14:06:57;27.20;99.90
2459;DHT22;1241;50.920;6.936;2022-07-23T14:09:23;27.20;99.90
2459;DHT22;1241;50.920;6.936;2022-07-23T14:11:49;27.10;99.90
2459;DHT22;1241;50.920;6.936;2022-07-23T14:14:18;27.10;99.90
2459;DHT22;1241;50.920;6.936;2022-07-23T14:16:44;27.20;99.90
2459;DHT22;1241;50.920;6.936;2022-07-23T14:19:10;27.30;99.90
2459;DHT22;1241;50.920;6.936;2022-07-23T14:21:37;27.30;99.90
2459;DHT22;1241;50.920;6.936;2022-07-23T14:24:03;27.00;98.70
2459;DHT22;1241;50.920;6.936;2022-07-23T14:26:29;26.90;99.90
2459;DHT22;1241;50.920;6.936;2022-07-23T14:28:55;26.80;99.90
2459;DHT22;1241;50.920;6.936;2022-07-23T14:31:21;26.70;99.90
2459;DHT22;1241;50.920;6.936;2022-07-23T14:33:48;26.70;99.90
2459;DHT22;1241;50.920;6.936;2022-07-23T14:36:16;26.70;99.90
2459;DHT22;1241;50.920;6.936;2022-07-23T14:38:42;26.50;99.90
2459;DHT22;1241;50.920;6.936;2022-07-23T14:41:08;26.50;99.90
2459;DHT22;1241;50.920;6.936;2022-07-23T14:43:35;26.50;99.90
2459;DHT22;1241;50.920;6.936;2022-07-23T14:46:00;26.50;99.90
2459;DHT22;1241;50.920;6.936;2022-07-23T14:48:26;26.50;99.90
2459;DHT22;1241;50.920;6.936;2022-07-23T14:50:52;26.50;99.90
2459;DHT22;1241;50.920;6.936;2022-07-23T14:53:18;26.50;99.90
2459;DHT22;1241;50.920;6.936;2022-07-23T14:55:44;26.60;99.90
2459;DHT22;1241;50.920;6.936;2022-07-23T14:58:09;26.80;99.90
2459;DHT22;1241;50.920;6.936;2022-07-23T15:00:35;26.80;99.60
2459;DHT22;1241;50.920;6.936;2022-07-23T15:03:01;26.80;99.90
2459;DHT22;1241;50.920;6.936;2022-07-23T15:05:27;26.70;99.90
2459;DHT22;1241;50.920;6.936;2022-07-23T15:07:54;26.80;99.70
2459;DHT22;1241;50.920;6.936;2022-07-23T15:10:20;26.80;99.90
2459;DHT22;1241;50.920;6.936;2022-07-23T15:12:46;26.70;99.90
2459;DHT22;1241;50.920;6.936;2022-07-23T15:15:12;26.70;99.90
2459;DHT22;1241;50.920;6.936;2022-07-23T15:17:39;26.70;99.90
2459;DHT22;1241;50.920;6.936;2022-07-23T15:20:05;26.70;99.90
2459;DHT22;1241;50.920;6.936;2022-07-23T15:22:31;26.70;99.50
2459;DHT22;1241;50.920;6.936;2022-07-23T15:24:56;26.70;99.10
2459;DHT22;1241;50.920;6.936;2022-07-23T15:27:22;26.70;98.60
2459;DHT22;1241;50.920;6.936;2022-07-23T15:29:48;26.70;98.70
2459;DHT22;1241;50.920;6.936;2022-07-23T15:32:13;26.70;98.70
2459;DHT22;1241;50.920;6.936;2022-07-23T15:34:39;26.60;98.80
2459;DHT22;1241;50.920;6.936;2022-07-23T15:37:05;26.60;99.30
2459;DHT22;1241;50.920;6.936;2022-07-23T15:39:32;26.60;98.90
2459;DHT22;1241;50.920;6.936;2022-07-23T15:41:59;26.60;98.70
2459;DHT22;1241;50.920;6.936;2022-07-23T15:44:25;26.60;99.20
2459;DHT22;1241;50.920;6.936;2022-07-23T15:46:50;26.70;98.00
2459;DHT22;1241;50.920;6.936;2022-07-23T15:49:16;26.70;98.20
2459;DHT22;1241;50.920;6.936;2022-07-23T15:51:42;26.80;98.10
2459;DHT22;1241;50.920;6.936;2022-07-23T15:54:08;26.90;98.10
2459;DHT22;1241;50.920;6.936;2022-07-23T15:56:34;26.90;98.90
2459;DHT22;1241;50.920;6.936;2022-07-23T15:59:00;26.90;97.80
2459;DHT22;1241;50.920;6.936;2022-07-23T16:01:25;26.90;97.80
2459;DHT22;1241;50.920;6.936;2022-07-23T16:03:55;26.90;97.60
2459;DHT22;1241;50.920;6.936;2022-07-23T16:06:21;26.90;97.40
2459;DHT22;1241;50.920;6.936;2022-07-23T16:08:47;26.90;98.00
2459;DHT22;1241;50.920;6.936;2022-07-23T16:11:13;26.80;97.80
2459;DHT22;1241;50.920;6.936;2022-07-23T16:13:39;26.70;98.20
2459;DHT22;1241;50.920;6.936;2022-07-23T16:16:05;26.60;99.10
2459;DHT22;1241;50.920;6.936;2022-07-23T16:18:32;26.70;98.70
2459;DHT22;1241;50.920;6.936;2022-07-23T16:20:57;26.70;99.40
2459;DHT22;1241;50.920;6.936;2022-07-23T16:23:23;26.80;98.60
2459;DHT22;1241;50.920;6.936;2022-07-23T16:25:49;26.80;97.70
2459;DHT22;1241;50.920;6.936;2022-07-23T16:28:15;26.70;97.80
2459;DHT22;1241;50.920;6.936;2022-07-23T16:30:41;26.70;97.10
2459;DHT22;1241;50.920;6.936;2022-07-23T16:33:07;26.70;97.60
2459;DHT22;1241;50.920;6.936;2022-07-23T16:35:33;26.80;98.00
2459;DHT22;1241;50.920;6.936;2022-07-23T16:37:59;26.70;97.10
2459;DHT22;1241;50.920;6.936;2022-07-23T16:40:27;26.60;96.60
2459;DHT22;1241;50.920;6.936;2022-07-23T16:42:53;26.50;96.90
2459;DHT22;1241;50.920;6.936;2022-07-23T16:45:19;26.50;97.30
2459;DHT22;1241;50.920;6.936;2022-07-23T16:47:46;26.50;97.50
2459;DHT22;1241;50.920;6.936;2022-07-23T16:50:12;26.50;97.20
2459;DHT22;1241;50.920;6.936;2022-07-23T16:52:38;26.60;97.80